Terminal Aerodrome Forecast
Issued by NWS Charleston, WV

Current Version | Previous Version | Graphics & Text | Print | Product List | Glossary On
Versions: 1 2 3 4 5 6 7 8 9 10 11 12 13 14 15 16 17 18 19 20 21 22 23 24 25 26 27
000
FTUS41 KRLX 152330
TAFEKN
TAF
KEKN 152330Z 1600/1624 22007KT P6SM OVC045
     FM160100 26011KT P6SM OVC035
     FM160200 27011G17KT P6SM OVC025
     FM160800 28010KT P6SM BKN035
     FM161700 25010KT P6SM SCT070=

USA.gov is the U.S. government's official web portal to all federal, state and local government web resources and services.